sensor_id;sensor_type;location;lat;lon;timestamp;temperature;humidity
27848;DHT22;15212;48.830;8.730;2022-07-29T00:00:26;18.60;99.90
27848;DHT22;15212;48.830;8.730;2022-07-29T00:02:54;18.60;99.90
27848;DHT22;15212;48.830;8.730;2022-07-29T00:05:23;18.60;99.90
27848;DHT22;15212;48.830;8.730;2022-07-29T00:07:51;18.60;99.90
27848;DHT22;15212;48.830;8.730;2022-07-29T00:10:20;18.60;99.90
27848;DHT22;15212;48.830;8.730;2022-07-29T00:12:48;18.60;99.90
27848;DHT22;15212;48.830;8.730;2022-07-29T00:15:17;18.60;99.90
27848;DHT22;15212;48.830;8.730;2022-07-29T00:17:45;18.60;99.90
27848;DHT22;15212;48.830;8.730;2022-07-29T00:20:13;18.60;99.90
27848;DHT22;15212;48.830;8.730;2022-07-29T00:22:42;18.60;99.90
27848;DHT22;15212;48.830;8.730;2022-07-29T00:25:12;18.60;99.90
27848;DHT22;15212;48.830;8.730;2022-07-29T00:27:41;18.60;99.90
27848;DHT22;15212;48.830;8.730;2022-07-29T00:30:09;18.60;99.90
27848;DHT22;15212;48.830;8.730;2022-07-29T00:32:38;18.60;99.90
27848;DHT22;15212;48.830;8.730;2022-07-29T00:35:06;18.60;99.90
27848;DHT22;15212;48.830;8.730;2022-07-29T00:37:53;18.60;99.90
27848;DHT22;15212;48.830;8.730;2022-07-29T00:40:22;18.60;99.90
27848;DHT22;15212;48.830;8.730;2022-07-29T00:42:52;18.60;99.90
27848;DHT22;15212;48.830;8.730;2022-07-29T00:45:20;18.60;99.90
27848;DHT22;15212;48.830;8.730;2022-07-29T00:47:51;18.60;99.90
27848;DHT22;15212;48.830;8.730;2022-07-29T00:50:20;18.60;99.90
27848;DHT22;15212;48.830;8.730;2022-07-29T00:52:48;18.60;99.90
27848;DHT22;15212;48.830;8.730;2022-07-29T00:55:17;18.60;99.90
27848;DHT22;15212;48.830;8.730;2022-07-29T00:57:46;18.60;99.90
27848;DHT22;15212;48.830;8.730;2022-07-29T01:00:20;18.60;99.90
27848;DHT22;15212;48.830;8.730;2022-07-29T01:02:50;18.60;99.90
27848;DHT22;15212;48.830;8.730;2022-07-29T01:05:21;18.60;99.90
27848;DHT22;15212;48.830;8.730;2022-07-29T01:07:53;18.60;99.90
27848;DHT22;15212;48.830;8.730;2022-07-29T01:10:23;18.60;99.90
27848;DHT22;15212;48.830;8.730;2022-07-29T01:12:53;18.60;99.90
27848;DHT22;15212;48.830;8.730;2022-07-29T01:15:24;18.50;99.90
27848;DHT22;15212;48.830;8.730;2022-07-29T01:18:11;18.60;99.90
27848;DHT22;15212;48.830;8.730;2022-07-29T01:21:07;18.50;99.90
27848;DHT22;15212;48.830;8.730;2022-07-29T01:27:04;18.50;99.90
27848;DHT22;15212;48.830;8.730;2022-07-29T01:29:49;18.50;99.90
27848;DHT22;15212;48.830;8.730;2022-07-29T01:32:20;18.40;99.90
27848;DHT22;15212;48.830;8.730;2022-07-29T01:38:01;18.30;99.90
27848;DHT22;15212;48.830;8.730;2022-07-29T01:40:46;18.30;99.90
27848;DHT22;15212;48.830;8.730;2022-07-29T01:43:24;18.30;99.90
27848;DHT22;15212;48.830;8.730;2022-07-29T01:45:58;18.30;99.90
27848;DHT22;15212;48.830;8.730;2022-07-29T01:51:11;18.30;99.90
27848;DHT22;15212;48.830;8.730;2022-07-29T01:53:46;18.20;99.90
27848;DHT22;15212;48.830;8.730;2022-07-29T01:56:17;18.30;99.90
27848;DHT22;15212;48.830;8.730;2022-07-29T01:58:47;18.30;99.90
27848;DHT22;15212;48.830;8.730;2022-07-29T02:01:18;18.20;99.90
27848;DHT22;15212;48.830;8.730;2022-07-29T02:03:48;18.20;99.90
27848;DHT22;15212;48.830;8.730;2022-07-29T02:06:19;18.20;99.90
27848;DHT22;15212;48.830;8.730;2022-07-29T02:08:51;18.30;99.90
27848;DHT22;15212;48.830;8.730;2022-07-29T02:11:20;18.30;99.90
27848;DHT22;15212;48.830;8.730;2022-07-29T02:13:50;18.30;99.90
27848;DHT22;15212;48.830;8.730;2022-07-29T02:16:21;18.30;99.90
27848;DHT22;15212;48.830;8.730;2022-07-29T02:18:52;18.30;99.90
27848;DHT22;15212;48.830;8.730;2022-07-29T02:21:24;18.40;99.90
27848;DHT22;15212;48.830;8.730;2022-07-29T02:23:55;18.40;99.90
27848;DHT22;15212;48.830;8.730;2022-07-29T02:26:26;18.40;99.90
27848;DHT22;15212;48.830;8.730;2022-07-29T02:28:57;18.40;99.90
27848;DHT22;15212;48.830;8.730;2022-07-29T02:31:31;18.50;99.90
27848;DHT22;15212;48.830;8.730;2022-07-29T02:34:06;18.50;99.90
27848;DHT22;15212;48.830;8.730;2022-07-29T02:36:31;18.50;99.90
27848;DHT22;15212;48.830;8.730;2022-07-29T02:39:02;18.50;99.90
27848;DHT22;15212;48.830;8.730;2022-07-29T02:41:47;18.60;99.90
27848;DHT22;15212;48.830;8.730;2022-07-29T02:44:19;18.60;99.90
27848;DHT22;15212;48.830;8.730;2022-07-29T02:46:56;18.60;99.90
27848;DHT22;15212;48.830;8.730;2022-07-29T02:55:13;18.60;99.90
27848;DHT22;15212;48.830;8.730;2022-07-29T03:00:31;18.50;99.90
27848;DHT22;15212;48.830;8.730;2022-07-29T03:02:59;18.50;99.90
27848;DHT22;15212;48.830;8.730;2022-07-29T03:05:29;18.50;99.90
27848;DHT22;15212;48.830;8.730;2022-07-29T03:08:01;18.50;99.90
27848;DHT22;15212;48.830;8.730;2022-07-29T03:10:32;18.50;99.90
27848;DHT22;15212;48.830;8.730;2022-07-29T03:13:01;18.50;99.90
27848;DHT22;15212;48.830;8.730;2022-07-29T03:15:31;18.50;99.90
27848;DHT22;15212;48.830;8.730;2022-07-29T03:18:00;18.50;99.90
27848;DHT22;15212;48.830;8.730;2022-07-29T03:20:29;18.60;99.90
27848;DHT22;15212;48.830;8.730;2022-07-29T03:22:57;18.60;99.90
27848;DHT22;15212;48.830;8.730;2022-07-29T03:25:26;18.60;99.90
27848;DHT22;15212;48.830;8.730;2022-07-29T03:27:54;18.60;99.90
27848;DHT22;15212;48.830;8.730;2022-07-29T03:30:23;18.60;99.90
27848;DHT22;15212;48.830;8.730;2022-07-29T03:32:52;18.70;99.90
27848;DHT22;15212;48.830;8.730;2022-07-29T03:35:21;18.70;99.90
27848;DHT22;15212;48.830;8.730;2022-07-29T03:37:49;18.70;99.90
27848;DHT22;15212;48.830;8.730;2022-07-29T03:40:26;18.70;99.90
27848;DHT22;15212;48.830;8.730;2022-07-29T03:43:02;18.70;99.90
27848;DHT22;15212;48.830;8.730;2022-07-29T03:45:32;18.70;99.90
27848;DHT22;15212;48.830;8.730;2022-07-29T03:48:09;18.70;99.90
27848;DHT22;15212;48.830;8.730;2022-07-29T03:50:35;18.60;99.90
27848;DHT22;15212;48.830;8.730;2022-07-29T03:53:03;18.60;99.90
27848;DHT22;15212;48.830;8.730;2022-07-29T03:55:36;18.60;99.90
27848;DHT22;15212;48.830;8.730;2022-07-29T03:58:05;18.50;99.90
27848;DHT22;15212;48.830;8.730;2022-07-29T04:00:35;18.50;99.90
27848;DHT22;15212;48.830;8.730;2022-07-29T04:03:05;18.50;99.90
27848;DHT22;15212;48.830;8.730;2022-07-29T04:05:33;18.40;99.90
27848;DHT22;15212;48.830;8.730;2022-07-29T04:08:02;18.40;99.90
27848;DHT22;15212;48.830;8.730;2022-07-29T04:10:30;18.30;99.90
27848;DHT22;15212;48.830;8.730;2022-07-29T04:12:59;18.30;99.90
27848;DHT22;15212;48.830;8.730;2022-07-29T04:15:27;18.20;99.90
27848;DHT22;15212;48.830;8.730;2022-07-29T04:17:56;18.20;99.90
27848;DHT22;15212;48.830;8.730;2022-07-29T04:20:24;18.20;99.90
27848;DHT22;15212;48.830;8.730;2022-07-29T04:22:53;18.20;99.90
27848;DHT22;15212;48.830;8.730;2022-07-29T04:25:21;18.10;99.90
27848;DHT22;15212;48.830;8.730;2022-07-29T04:27:49;18.10;99.90
27848;DHT22;15212;48.830;8.730;2022-07-29T04:30:27;18.10;99.90
27848;DHT22;15212;48.830;8.730;2022-07-29T04:32:56;18.10;99.90
27848;DHT22;15212;48.830;8.730;2022-07-29T04:35:28;18.10;99.90
27848;DHT22;15212;48.830;8.730;2022-07-29T04:37:57;18.10;99.90
27848;DHT22;15212;48.830;8.730;2022-07-29T04:40:25;18.10;99.90
27848;DHT22;15212;48.830;8.730;2022-07-29T04:42:54;18.10;99.90
27848;DHT22;15212;48.830;8.730;2022-07-29T04:45:22;18.10;99.90
27848;DHT22;15212;48.830;8.730;2022-07-29T04:47:51;18.10;99.90
27848;DHT22;15212;48.830;8.730;2022-07-29T04:50:19;18.10;99.90
27848;DHT22;15212;48.830;8.730;2022-07-29T04:52:47;18.10;99.90
27848;DHT22;15212;48.830;8.730;2022-07-29T04:55:16;18.20;99.90
27848;DHT22;15212;48.830;8.730;2022-07-29T04:57:44;18.20;99.90
27848;DHT22;15212;48.830;8.730;2022-07-29T05:00:13;18.20;99.90
27848;DHT22;15212;48.830;8.730;2022-07-29T05:02:41;18.30;99.90
27848;DHT22;15212;48.830;8.730;2022-07-29T05:05:09;18.40;99.90
27848;DHT22;15212;48.830;8.730;2022-07-29T05:07:38;18.40;99.90
27848;DHT22;15212;48.830;8.730;2022-07-29T05:10:07;18.50;99.90
27848;DHT22;15212;48.830;8.730;2022-07-29T05:12:36;18.60;99.90
27848;DHT22;15212;48.830;8.730;2022-07-29T05:15:04;18.70;99.90
27848;DHT22;15212;48.830;8.730;2022-07-29T05:17:33;18.80;99.90
27848;DHT22;15212;48.830;8.730;2022-07-29T05:20:02;18.90;99.90
27848;DHT22;15212;48.830;8.730;2022-07-29T05:22:31;19.00;99.90
27848;DHT22;15212;48.830;8.730;2022-07-29T05:24:59;19.20;99.90
27848;DHT22;15212;48.830;8.730;2022-07-29T05:27:28;19.40;99.90
27848;DHT22;15212;48.830;8.730;2022-07-29T05:29:57;19.60;99.90
27848;DHT22;15212;48.830;8.730;2022-07-29T05:32:25;19.80;99.90
27848;DHT22;15212;48.830;8.730;2022-07-29T05:34:54;19.90;99.90
27848;DHT22;15212;48.830;8.730;2022-07-29T05:37:22;20.00;99.90
27848;DHT22;15212;48.830;8.730;2022-07-29T05:39:51;20.20;99.90
27848;DHT22;15212;48.830;8.730;2022-07-29T05:42:19;20.30;99.90
27848;DHT22;15212;48.830;8.730;2022-07-29T05:44:47;20.40;99.90
27848;DHT22;15212;48.830;8.730;2022-07-29T05:47:16;20.40;99.90
27848;DHT22;15212;48.830;8.730;2022-07-29T05:49:44;20.40;99.90
27848;DHT22;15212;48.830;8.730;2022-07-29T05:52:13;20.50;99.90
27848;DHT22;15212;48.830;8.730;2022-07-29T05:54:41;20.50;99.90
27848;DHT22;15212;48.830;8.730;2022-07-29T05:57:25;20.50;99.90
27848;DHT22;15212;48.830;8.730;2022-07-29T05:59:51;20.50;99.90
27848;DHT22;15212;48.830;8.730;2022-07-29T06:02:19;20.50;99.90
27848;DHT22;15212;48.830;8.730;2022-07-29T06:04:47;20.60;99.90
27848;DHT22;15212;48.830;8.730;2022-07-29T06:07:16;20.80;99.90
27848;DHT22;15212;48.830;8.730;2022-07-29T06:09:44;20.90;99.90
27848;DHT22;15212;48.830;8.730;2022-07-29T06:12:13;21.00;99.90
27848;DHT22;15212;48.830;8.730;2022-07-29T06:14:41;21.10;99.90
27848;DHT22;15212;48.830;8.730;2022-07-29T06:17:09;21.20;99.90
27848;DHT22;15212;48.830;8.730;2022-07-29T06:19:38;21.40;99.90
27848;DHT22;15212;48.830;8.730;2022-07-29T06:22:06;21.60;99.90
27848;DHT22;15212;48.830;8.730;2022-07-29T06:24:36;21.70;99.90
27848;DHT22;15212;48.830;8.730;2022-07-29T06:27:06;22.10;99.90
27848;DHT22;15212;48.830;8.730;2022-07-29T06:29:36;22.70;99.90
27848;DHT22;15212;48.830;8.730;2022-07-29T06:32:05;23.30;99.90
27848;DHT22;15212;48.830;8.730;2022-07-29T06:34:36;23.70;99.90
27848;DHT22;15212;48.830;8.730;2022-07-29T06:37:08;23.80;99.90
27848;DHT22;15212;48.830;8.730;2022-07-29T06:39:36;24.00;99.90
27848;DHT22;15212;48.830;8.730;2022-07-29T06:42:05;24.80;99.90
27848;DHT22;15212;48.830;8.730;2022-07-29T06:44:33;25.70;99.90
27848;DHT22;15212;48.830;8.730;2022-07-29T06:47:02;26.50;99.90
27848;DHT22;15212;48.830;8.730;2022-07-29T06:49:31;26.80;99.90
27848;DHT22;15212;48.830;8.730;2022-07-29T06:51:59;26.90;99.90
27848;DHT22;15212;48.830;8.730;2022-07-29T06:54:28;27.00;99.90
27848;DHT22;15212;48.830;8.730;2022-07-29T06:56:57;26.80;99.90
27848;DHT22;15212;48.830;8.730;2022-07-29T06:59:25;26.70;99.90
27848;DHT22;15212;48.830;8.730;2022-07-29T07:01:54;26.70;99.90
27848;DHT22;15212;48.830;8.730;2022-07-29T07:04:22;26.70;99.90
27848;DHT22;15212;48.830;8.730;2022-07-29T07:06:50;26.40;99.90
27848;DHT22;15212;48.830;8.730;2022-07-29T07:09:19;26.10;99.90
27848;DHT22;15212;48.830;8.730;2022-07-29T07:11:47;26.40;99.90
27848;DHT22;15212;48.830;8.730;2022-07-29T07:14:15;27.10;99.90
27848;DHT22;15212;48.830;8.730;2022-07-29T07:16:44;28.00;99.90
27848;DHT22;15212;48.830;8.730;2022-07-29T07:19:12;28.50;99.90
27848;DHT22;15212;48.830;8.730;2022-07-29T07:21:41;28.30;99.90
27848;DHT22;15212;48.830;8.730;2022-07-29T07:24:09;28.10;99.90
27848;DHT22;15212;48.830;8.730;2022-07-29T07:26:37;28.00;99.90
27848;DHT22;15212;48.830;8.730;2022-07-29T07:29:06;27.70;99.90
27848;DHT22;15212;48.830;8.730;2022-07-29T07:31:35;27.70;99.90
27848;DHT22;15212;48.830;8.730;2022-07-29T07:34:04;27.30;99.90
27848;DHT22;15212;48.830;8.730;2022-07-29T07:36:32;27.10;99.90
27848;DHT22;15212;48.830;8.730;2022-07-29T07:39:01;27.00;99.90
27848;DHT22;15212;48.830;8.730;2022-07-29T07:41:31;26.70;99.90
27848;DHT22;15212;48.830;8.730;2022-07-29T07:43:59;26.40;99.90
27848;DHT22;15212;48.830;8.730;2022-07-29T07:46:28;26.00;99.90
27848;DHT22;15212;48.830;8.730;2022-07-29T07:48:56;25.80;99.90
27848;DHT22;15212;48.830;8.730;2022-07-29T07:51:25;25.50;99.90
27848;DHT22;15212;48.830;8.730;2022-07-29T07:53:53;25.20;99.90
27848;DHT22;15212;48.830;8.730;2022-07-29T07:56:21;25.30;99.90
27848;DHT22;15212;48.830;8.730;2022-07-29T07:58:50;25.70;99.90
27848;DHT22;15212;48.830;8.730;2022-07-29T08:01:18;25.80;99.90
27848;DHT22;15212;48.830;8.730;2022-07-29T08:03:49;25.70;99.90
27848;DHT22;15212;48.830;8.730;2022-07-29T08:06:18;25.80;99.90
27848;DHT22;15212;48.830;8.730;2022-07-29T08:08:46;25.80;99.90
27848;DHT22;15212;48.830;8.730;2022-07-29T08:11:15;25.70;99.90
27848;DHT22;15212;48.830;8.730;2022-07-29T08:13:43;25.60;99.90
27848;DHT22;15212;48.830;8.730;2022-07-29T08:16:13;25.70;99.90
27848;DHT22;15212;48.830;8.730;2022-07-29T08:18:42;25.80;99.90
27848;DHT22;15212;48.830;8.730;2022-07-29T08:21:13;25.90;99.90
27848;DHT22;15212;48.830;8.730;2022-07-29T08:23:44;26.00;99.90
27848;DHT22;15212;48.830;8.730;2022-07-29T08:26:23;26.20;99.90
27848;DHT22;15212;48.830;8.730;2022-07-29T08:28:51;26.20;99.90
27848;DHT22;15212;48.830;8.730;2022-07-29T08:31:19;26.20;99.90
27848;DHT22;15212;48.830;8.730;2022-07-29T08:33:48;26.10;99.90
27848;DHT22;15212;48.830;8.730;2022-07-29T08:36:16;26.20;99.90
27848;DHT22;15212;48.830;8.730;2022-07-29T08:38:46;26.30;99.90
27848;DHT22;15212;48.830;8.730;2022-07-29T08:41:15;26.50;99.90
27848;DHT22;15212;48.830;8.730;2022-07-29T08:43:46;26.60;99.90
27848;DHT22;15212;48.830;8.730;2022-07-29T08:46:15;26.40;99.90
27848;DHT22;15212;48.830;8.730;2022-07-29T08:48:46;26.50;99.90
27848;DHT22;15212;48.830;8.730;2022-07-29T08:51:18;26.60;99.90
27848;DHT22;15212;48.830;8.730;2022-07-29T08:53:48;26.50;99.90
27848;DHT22;15212;48.830;8.730;2022-07-29T08:56:18;26.70;99.90
27848;DHT22;15212;48.830;8.730;2022-07-29T08:58:47;26.80;99.90
27848;DHT22;15212;48.830;8.730;2022-07-29T09:01:21;27.00;99.90
27848;DHT22;15212;48.830;8.730;2022-07-29T09:03:54;26.80;99.90
27848;DHT22;15212;48.830;8.730;2022-07-29T09:06:22;26.80;99.90
27848;DHT22;15212;48.830;8.730;2022-07-29T09:08:54;26.80;99.90
27848;DHT22;15212;48.830;8.730;2022-07-29T09:11:24;26.80;99.90
27848;DHT22;15212;48.830;8.730;2022-07-29T09:13:54;26.70;99.90
27848;DHT22;15212;48.830;8.730;2022-07-29T09:16:22;26.50;99.90
27848;DHT22;15212;48.830;8.730;2022-07-29T09:18:50;26.50;99.90
27848;DHT22;15212;48.830;8.730;2022-07-29T09:21:19;26.40;99.90
27848;DHT22;15212;48.830;8.730;2022-07-29T09:24:15;26.40;99.90
27848;DHT22;15212;48.830;8.730;2022-07-29T09:26:45;26.40;99.90
27848;DHT22;15212;48.830;8.730;2022-07-29T09:29:21;26.40;99.90
27848;DHT22;15212;48.830;8.730;2022-07-29T09:31:52;26.40;99.90
27848;DHT22;15212;48.830;8.730;2022-07-29T09:34:28;26.40;99.90
27848;DHT22;15212;48.830;8.730;2022-07-29T09:36:55;26.50;99.90
27848;DHT22;15212;48.830;8.730;2022-07-29T09:39:37;26.60;99.90
27848;DHT22;15212;48.830;8.730;2022-07-29T09:42:13;26.70;99.90
27848;DHT22;15212;48.830;8.730;2022-07-29T09:47:16;26.70;99.30
27848;DHT22;15212;48.830;8.730;2022-07-29T09:49:53;26.60;99.00
27848;DHT22;15212;48.830;8.730;2022-07-29T09:52:26;26.40;99.00
27848;DHT22;15212;48.830;8.730;2022-07-29T09:55:10;26.40;98.90
27848;DHT22;15212;48.830;8.730;2022-07-29T09:57:39;26.30;98.70
27848;DHT22;15212;48.830;8.730;2022-07-29T10:00:12;26.30;97.80
27848;DHT22;15212;48.830;8.730;2022-07-29T10:02:44;26.30;97.70
27848;DHT22;15212;48.830;8.730;2022-07-29T10:05:22;26.20;97.90
27848;DHT22;15212;48.830;8.730;2022-07-29T10:07:58;26.20;97.60
27848;DHT22;15212;48.830;8.730;2022-07-29T10:10:33;26.10;97.70
27848;DHT22;15212;48.830;8.730;2022-07-29T10:13:04;25.90;97.50
27848;DHT22;15212;48.830;8.730;2022-07-29T10:15:39;25.80;97.70
27848;DHT22;15212;48.830;8.730;2022-07-29T10:18:12;25.90;97.30
27848;DHT22;15212;48.830;8.730;2022-07-29T10:20:43;26.00;97.50
27848;DHT22;15212;48.830;8.730;2022-07-29T10:23:11;26.00;97.20
27848;DHT22;15212;48.830;8.730;2022-07-29T10:25:40;26.10;97.30
27848;DHT22;15212;48.830;8.730;2022-07-29T10:28:09;26.00;97.10
27848;DHT22;15212;48.830;8.730;2022-07-29T10:30:38;26.00;97.50
27848;DHT22;15212;48.830;8.730;2022-07-29T10:36:42;26.10;97.10
27848;DHT22;15212;48.830;8.730;2022-07-29T10:44:51;26.40;96.20
27848;DHT22;15212;48.830;8.730;2022-07-29T10:47:25;26.30;95.70
27848;DHT22;15212;48.830;8.730;2022-07-29T10:50:04;26.10;96.10
27848;DHT22;15212;48.830;8.730;2022-07-29T10:55:37;25.70;96.50
27848;DHT22;15212;48.830;8.730;2022-07-29T10:58:16;25.60;96.60
27848;DHT22;15212;48.830;8.730;2022-07-29T11:00:50;25.60;96.50
27848;DHT22;15212;48.830;8.730;2022-07-29T11:06:14;25.70;96.10
27848;DHT22;15212;48.830;8.730;2022-07-29T11:08:42;25.60;96.40
27848;DHT22;15212;48.830;8.730;2022-07-29T11:13:58;25.70;96.10
27848;DHT22;15212;48.830;8.730;2022-07-29T11:16:57;25.80;96.20
27848;DHT22;15212;48.830;8.730;2022-07-29T11:21:45;25.80;96.30
27848;DHT22;15212;48.830;8.730;2022-07-29T11:24:25;25.80;96.20
27848;DHT22;15212;48.830;8.730;2022-07-29T11:27:11;25.70;96.00
27848;DHT22;15212;48.830;8.730;2022-07-29T11:29:53;25.60;96.10
27848;DHT22;15212;48.830;8.730;2022-07-29T11:32:24;25.50;96.20
27848;DHT22;15212;48.830;8.730;2022-07-29T11:35:11;25.50;96.10
27848;DHT22;15212;48.830;8.730;2022-07-29T11:43:56;25.80;96.10
27848;DHT22;15212;48.830;8.730;2022-07-29T11:46:47;25.90;96.20
27848;DHT22;15212;48.830;8.730;2022-07-29T11:49:24;25.90;96.00
27848;DHT22;15212;48.830;8.730;2022-07-29T11:51:55;25.80;96.10
27848;DHT22;15212;48.830;8.730;2022-07-29T11:54:33;25.80;96.30
27848;DHT22;15212;48.830;8.730;2022-07-29T11:57:02;25.80;96.30
27848;DHT22;15212;48.830;8.730;2022-07-29T11:59:32;25.80;96.10
27848;DHT22;15212;48.830;8.730;2022-07-29T12:02:09;25.80;96.00
27848;DHT22;15212;48.830;8.730;2022-07-29T12:04:51;25.80;95.70
27848;DHT22;15212;48.830;8.730;2022-07-29T12:07:31;25.70;95.80
27848;DHT22;15212;48.830;8.730;2022-07-29T12:10:01;25.60;95.90
27848;DHT22;15212;48.830;8.730;2022-07-29T12:12:30;25.40;96.20
27848;DHT22;15212;48.830;8.730;2022-07-29T12:17:44;25.30;96.60
27848;DHT22;15212;48.830;8.730;2022-07-29T12:20:13;25.20;96.70
27848;DHT22;15212;48.830;8.730;2022-07-29T12:22:52;25.20;96.70
27848;DHT22;15212;48.830;8.730;2022-07-29T12:25:23;25.10;96.70
27848;DHT22;15212;48.830;8.730;2022-07-29T12:28:00;25.10;96.60
27848;DHT22;15212;48.830;8.730;2022-07-29T12:30:40;25.10;96.80
27848;DHT22;15212;48.830;8.730;2022-07-29T12:35:55;25.00;97.00
27848;DHT22;15212;48.830;8.730;2022-07-29T12:38:25;25.10;96.80
27848;DHT22;15212;48.830;8.730;2022-07-29T12:40:55;25.10;96.60
27848;DHT22;15212;48.830;8.730;2022-07-29T12:43:25;25.00;96.80
27848;DHT22;15212;48.830;8.730;2022-07-29T12:45:55;25.10;97.00
27848;DHT22;15212;48.830;8.730;2022-07-29T12:48:35;25.20;96.90
27848;DHT22;15212;48.830;8.730;2022-07-29T12:51:05;25.30;96.60
27848;DHT22;15212;48.830;8.730;2022-07-29T12:53:36;25.30;96.70
27848;DHT22;15212;48.830;8.730;2022-07-29T12:56:05;25.40;96.50
27848;DHT22;15212;48.830;8.730;2022-07-29T12:58:39;25.40;95.90
27848;DHT22;15212;48.830;8.730;2022-07-29T13:01:14;25.40;96.20
27848;DHT22;15212;48.830;8.730;2022-07-29T13:03:55;25.40;96.00
27848;DHT22;15212;48.830;8.730;2022-07-29T13:06:40;25.40;96.30
27848;DHT22;15212;48.830;8.730;2022-07-29T13:09:13;25.40;96.00
27848;DHT22;15212;48.830;8.730;2022-07-29T13:11:45;25.20;95.70
27848;DHT22;15212;48.830;8.730;2022-07-29T13:14:36;25.20;95.20
27848;DHT22;15212;48.830;8.730;2022-07-29T13:17:15;25.20;95.20
27848;DHT22;15212;48.830;8.730;2022-07-29T13:19:50;25.20;94.80
27848;DHT22;15212;48.830;8.730;2022-07-29T13:22:23;25.20;94.50
27848;DHT22;15212;48.830;8.730;2022-07-29T13:24:57;25.20;94.70
27848;DHT22;15212;48.830;8.730;2022-07-29T13:27:29;25.30;94.60
27848;DHT22;15212;48.830;8.730;2022-07-29T13:30:01;25.30;94.40
27848;DHT22;15212;48.830;8.730;2022-07-29T13:32:32;25.40;94.00
27848;DHT22;15212;48.830;8.730;2022-07-29T13:35:06;25.40;94.30
27848;DHT22;15212;48.830;8.730;2022-07-29T13:37:36;25.50;94.00
27848;DHT22;15212;48.830;8.730;2022-07-29T13:40:08;25.50;93.50
27848;DHT22;15212;48.830;8.730;2022-07-29T13:42:37;25.50;93.90
27848;DHT22;15212;48.830;8.730;2022-07-29T13:45:09;25.60;93.40
27848;DHT22;15212;48.830;8.730;2022-07-29T13:47:38;25.70;93.10
27848;DHT22;15212;48.830;8.730;2022-07-29T13:50:08;25.70;93.60
27848;DHT22;15212;48.830;8.730;2022-07-29T13:52:37;25.80;93.10
27848;DHT22;15212;48.830;8.730;2022-07-29T13:55:06;25.80;93.00
27848;DHT22;15212;48.830;8.730;2022-07-29T13:57:35;25.80;93.00
27848;DHT22;15212;48.830;8.730;2022-07-29T14:00:04;25.80;92.90
27848;DHT22;15212;48.830;8.730;2022-07-29T14:02:33;25.80;92.80
27848;DHT22;15212;48.830;8.730;2022-07-29T14:05:01;25.90;92.60
27848;DHT22;15212;48.830;8.730;2022-07-29T14:07:29;25.90;92.40
27848;DHT22;15212;48.830;8.730;2022-07-29T14:09:58;25.90;92.40
27848;DHT22;15212;48.830;8.730;2022-07-29T14:12:26;26.00;91.90
27848;DHT22;15212;48.830;8.730;2022-07-29T14:14:55;26.10;91.80
27848;DHT22;15212;48.830;8.730;2022-07-29T14:17:23;26.00;91.50
27848;DHT22;15212;48.830;8.730;2022-07-29T14:19:51;25.90;91.80
27848;DHT22;15212;48.830;8.730;2022-07-29T14:22:20;25.90;91.80
27848;DHT22;15212;48.830;8.730;2022-07-29T14:24:48;25.90;91.90
27848;DHT22;15212;48.830;8.730;2022-07-29T14:27:16;25.90;91.80
27848;DHT22;15212;48.830;8.730;2022-07-29T14:29:45;26.00;91.50
27848;DHT22;15212;48.830;8.730;2022-07-29T14:32:13;26.00;92.00
27848;DHT22;15212;48.830;8.730;2022-07-29T14:34:42;25.90;91.50
27848;DHT22;15212;48.830;8.730;2022-07-29T14:37:10;25.90;91.20
27848;DHT22;15212;48.830;8.730;2022-07-29T14:39:39;25.90;91.50
27848;DHT22;15212;48.830;8.730;2022-07-29T14:42:07;26.00;91.70
27848;DHT22;15212;48.830;8.730;2022-07-29T14:44:36;26.10;91.90
27848;DHT22;15212;48.830;8.730;2022-07-29T14:47:04;26.10;91.60
27848;DHT22;15212;48.830;8.730;2022-07-29T14:49:33;26.10;91.60
27848;DHT22;15212;48.830;8.730;2022-07-29T14:52:02;26.10;91.70
27848;DHT22;15212;48.830;8.730;2022-07-29T14:54:30;25.90;92.00
27848;DHT22;15212;48.830;8.730;2022-07-29T14:56:58;25.90;92.30
27848;DHT22;15212;48.830;8.730;2022-07-29T14:59:27;26.00;92.10
27848;DHT22;15212;48.830;8.730;2022-07-29T15:01:55;25.90;91.90
27848;DHT22;15212;48.830;8.730;2022-07-29T15:04:24;25.90;92.10
27848;DHT22;15212;48.830;8.730;2022-07-29T15:06:52;25.80;92.20
27848;DHT22;15212;48.830;8.730;2022-07-29T15:09:20;25.80;92.10
27848;DHT22;15212;48.830;8.730;2022-07-29T15:11:49;25.90;92.20
27848;DHT22;15212;48.830;8.730;2022-07-29T15:14:17;25.90;92.00
27848;DHT22;15212;48.830;8.730;2022-07-29T15:16:46;25.80;92.30
27848;DHT22;15212;48.830;8.730;2022-07-29T15:19:14;25.70;92.20
27848;DHT22;15212;48.830;8.730;2022-07-29T15:21:43;25.70;92.10
27848;DHT22;15212;48.830;8.730;2022-07-29T15:24:11;25.60;92.20
27848;DHT22;15212;48.830;8.730;2022-07-29T15:26:39;25.50;92.40
27848;DHT22;15212;48.830;8.730;2022-07-29T15:29:09;25.50;92.50
27848;DHT22;15212;48.830;8.730;2022-07-29T15:31:37;25.40;92.60
27848;DHT22;15212;48.830;8.730;2022-07-29T15:34:05;25.50;92.60
27848;DHT22;15212;48.830;8.730;2022-07-29T15:36:34;25.50;92.40
27848;DHT22;15212;48.830;8.730;2022-07-29T15:39:03;25.60;92.30
27848;DHT22;15212;48.830;8.730;2022-07-29T15:41:32;25.60;92.20
27848;DHT22;15212;48.830;8.730;2022-07-29T15:44:01;25.60;92.20
27848;DHT22;15212;48.830;8.730;2022-07-29T15:46:29;25.50;92.20
27848;DHT22;15212;48.830;8.730;2022-07-29T15:49:14;25.40;92.10
27848;DHT22;15212;48.830;8.730;2022-07-29T15:51:43;25.40;92.00
27848;DHT22;15212;48.830;8.730;2022-07-29T15:54:11;25.30;92.10
27848;DHT22;15212;48.830;8.730;2022-07-29T15:56:39;25.30;92.10
27848;DHT22;15212;48.830;8.730;2022-07-29T15:59:08;25.30;92.00
27848;DHT22;15212;48.830;8.730;2022-07-29T16:01:36;25.40;91.90
27848;DHT22;15212;48.830;8.730;2022-07-29T16:04:05;25.40;91.90
27848;DHT22;15212;48.830;8.730;2022-07-29T16:06:33;25.40;92.30
27848;DHT22;15212;48.830;8.730;2022-07-29T16:09:02;25.50;92.20
27848;DHT22;15212;48.830;8.730;2022-07-29T16:11:31;25.50;91.60
27848;DHT22;15212;48.830;8.730;2022-07-29T16:13:59;25.50;91.90
27848;DHT22;15212;48.830;8.730;2022-07-29T16:16:28;25.60;91.70
27848;DHT22;15212;48.830;8.730;2022-07-29T16:18:56;25.60;91.60
27848;DHT22;15212;48.830;8.730;2022-07-29T16:21:25;25.60;91.40
27848;DHT22;15212;48.830;8.730;2022-07-29T16:23:53;25.60;91.40
27848;DHT22;15212;48.830;8.730;2022-07-29T16:26:22;25.40;91.50
27848;DHT22;15212;48.830;8.730;2022-07-29T16:28:50;25.40;91.80
27848;DHT22;15212;48.830;8.730;2022-07-29T16:31:19;25.30;91.70
27848;DHT22;15212;48.830;8.730;2022-07-29T16:33:49;25.30;91.90
27848;DHT22;15212;48.830;8.730;2022-07-29T16:36:18;25.30;92.30
27848;DHT22;15212;48.830;8.730;2022-07-29T16:38:46;25.40;92.30
27848;DHT22;15212;48.830;8.730;2022-07-29T16:41:14;25.40;92.30
27848;DHT22;15212;48.830;8.730;2022-07-29T16:43:43;25.30;92.40